sensor_id;sensor_type;location;lat;lon;timestamp;P1;durP1;ratioP1;P2;durP2;ratioP2
74528;SDS011;63009;52.584;5.932;2023-08-07T00:00:33;9.13;;;1.45;;
74528;SDS011;63009;52.584;5.932;2023-08-07T00:02:58;11.13;;;1.75;;
74528;SDS011;63009;52.584;5.932;2023-08-07T00:05:24;10.30;;;2.43;;
74528;SDS011;63009;52.584;5.932;2023-08-07T00:07:49;8.47;;;1.57;;
74528;SDS011;63009;52.584;5.932;2023-08-07T00:10:14;8.00;;;1.37;;
74528;SDS011;63009;52.584;5.932;2023-08-07T00:12:40;10.53;;;1.93;;
74528;SDS011;63009;52.584;5.932;2023-08-07T00:15:05;10.63;;;1.90;;
74528;SDS011;63009;52.584;5.932;2023-08-07T00:17:31;9.90;;;1.95;;
74528;SDS011;63009;52.584;5.932;2023-08-07T00:19:56;10.98;;;2.20;;
74528;SDS011;63009;52.584;5.932;2023-08-07T00:22:22;10.77;;;2.42;;
74528;SDS011;63009;52.584;5.932;2023-08-07T00:24:47;8.27;;;2.20;;
74528;SDS011;63009;52.584;5.932;2023-08-07T00:27:12;11.47;;;2.17;;
74528;SDS011;63009;52.584;5.932;2023-08-07T00:29:39;9.52;;;2.05;;
74528;SDS011;63009;52.584;5.932;2023-08-07T00:32:04;8.30;;;2.08;;
74528;SDS011;63009;52.584;5.932;2023-08-07T00:34:30;11.82;;;2.72;;
74528;SDS011;63009;52.584;5.932;2023-08-07T00:36:56;6.38;;;2.00;;
74528;SDS011;63009;52.584;5.932;2023-08-07T00:39:21;7.50;;;1.80;;
74528;SDS011;63009;52.584;5.932;2023-08-07T00:41:46;5.13;;;1.50;;
74528;SDS011;63009;52.584;5.932;2023-08-07T00:44:12;5.32;;;1.30;;
74528;SDS011;63009;52.584;5.932;2023-08-07T00:46:37;7.50;;;2.20;;
74528;SDS011;63009;52.584;5.932;2023-08-07T00:49:04;7.82;;;1.88;;
74528;SDS011;63009;52.584;5.932;2023-08-07T00:51:31;7.20;;;1.40;;
74528;SDS011;63009;52.584;5.932;2023-08-07T00:53:56;8.45;;;1.65;;
74528;SDS011;63009;52.584;5.932;2023-08-07T00:56:22;6.43;;;1.30;;
74528;SDS011;63009;52.584;5.932;2023-08-07T00:58:48;6.47;;;1.33;;
74528;SDS011;63009;52.584;5.932;2023-08-07T01:01:15;8.65;;;1.70;;
74528;SDS011;63009;52.584;5.932;2023-08-07T01:03:40;8.35;;;1.83;;
74528;SDS011;63009;52.584;5.932;2023-08-07T01:06:05;6.63;;;1.50;;
74528;SDS011;63009;52.584;5.932;2023-08-07T01:08:31;8.05;;;1.42;;
74528;SDS011;63009;52.584;5.932;2023-08-07T01:13:56;9.30;;;1.70;;
74528;SDS011;63009;52.584;5.932;2023-08-07T01:16:28;7.80;;;1.50;;
74528;SDS011;63009;52.584;5.932;2023-08-07T01:19:00;11.40;;;1.85;;
74528;SDS011;63009;52.584;5.932;2023-08-07T01:21:28;11.73;;;1.92;;
74528;SDS011;63009;52.584;5.932;2023-08-07T01:23:53;10.00;;;1.42;;
74528;SDS011;63009;52.584;5.932;2023-08-07T01:26:19;8.90;;;1.50;;
74528;SDS011;63009;52.584;5.932;2023-08-07T01:28:57;12.05;;;2.00;;
74528;SDS011;63009;52.584;5.932;2023-08-07T01:31:31;6.68;;;1.63;;
74528;SDS011;63009;52.584;5.932;2023-08-07T01:34:02;7.45;;;1.33;;
74528;SDS011;63009;52.584;5.932;2023-08-07T01:36:30;7.93;;;1.63;;
74528;SDS011;63009;52.584;5.932;2023-08-07T01:38:57;8.70;;;2.60;;
74528;SDS011;63009;52.584;5.932;2023-08-07T01:41:24;8.40;;;1.90;;
74528;SDS011;63009;52.584;5.932;2023-08-07T01:43:50;11.38;;;2.00;;
74528;SDS011;63009;52.584;5.932;2023-08-07T01:46:16;8.65;;;1.30;;
74528;SDS011;63009;52.584;5.932;2023-08-07T01:48:42;8.77;;;2.03;;
74528;SDS011;63009;52.584;5.932;2023-08-07T01:51:07;7.93;;;1.70;;
74528;SDS011;63009;52.584;5.932;2023-08-07T01:53:32;8.10;;;1.60;;
74528;SDS011;63009;52.584;5.932;2023-08-07T01:55:58;7.30;;;1.40;;
74528;SDS011;63009;52.584;5.932;2023-08-07T01:58:23;8.00;;;1.47;;
74528;SDS011;63009;52.584;5.932;2023-08-07T02:00:48;4.77;;;1.37;;
74528;SDS011;63009;52.584;5.932;2023-08-07T02:03:13;6.00;;;1.53;;
74528;SDS011;63009;52.584;5.932;2023-08-07T02:05:39;7.00;;;1.53;;
74528;SDS011;63009;52.584;5.932;2023-08-07T02:08:04;6.50;;;1.40;;
74528;SDS011;63009;52.584;5.932;2023-08-07T02:10:29;5.63;;;1.10;;
74528;SDS011;63009;52.584;5.932;2023-08-07T02:12:56;8.50;;;1.20;;
74528;SDS011;63009;52.584;5.932;2023-08-07T02:15:22;4.07;;;1.15;;
74528;SDS011;63009;52.584;5.932;2023-08-07T02:17:47;5.43;;;1.20;;
74528;SDS011;63009;52.584;5.932;2023-08-07T02:20:13;7.10;;;1.40;;
74528;SDS011;63009;52.584;5.932;2023-08-07T02:22:38;10.25;;;1.58;;
74528;SDS011;63009;52.584;5.932;2023-08-07T02:25:03;6.40;;;1.45;;
74528;SDS011;63009;52.584;5.932;2023-08-07T02:27:29;6.07;;;1.50;;
74528;SDS011;63009;52.584;5.932;2023-08-07T02:29:54;9.93;;;1.67;;
74528;SDS011;63009;52.584;5.932;2023-08-07T02:32:20;7.13;;;1.40;;
74528;SDS011;63009;52.584;5.932;2023-08-07T02:34:45;10.33;;;1.67;;
74528;SDS011;63009;52.584;5.932;2023-08-07T02:37:10;13.07;;;1.88;;
74528;SDS011;63009;52.584;5.932;2023-08-07T02:39:36;6.43;;;1.60;;
74528;SDS011;63009;52.584;5.932;2023-08-07T02:42:01;7.90;;;1.50;;
74528;SDS011;63009;52.584;5.932;2023-08-07T02:44:26;9.20;;;2.08;;
74528;SDS011;63009;52.584;5.932;2023-08-07T02:46:52;10.07;;;2.30;;
74528;SDS011;63009;52.584;5.932;2023-08-07T02:49:17;10.53;;;1.80;;
74528;SDS011;63009;52.584;5.932;2023-08-07T02:51:42;8.20;;;1.70;;
74528;SDS011;63009;52.584;5.932;2023-08-07T02:54:07;8.67;;;1.83;;
74528;SDS011;63009;52.584;5.932;2023-08-07T02:56:33;7.17;;;1.50;;
74528;SDS011;63009;52.584;5.932;2023-08-07T02:58:58;11.90;;;2.55;;
74528;SDS011;63009;52.584;5.932;2023-08-07T03:01:24;9.35;;;1.73;;
74528;SDS011;63009;52.584;5.932;2023-08-07T03:03:49;8.13;;;1.80;;
74528;SDS011;63009;52.584;5.932;2023-08-07T03:06:14;10.13;;;2.10;;
74528;SDS011;63009;52.584;5.932;2023-08-07T03:08:40;13.03;;;2.00;;
74528;SDS011;63009;52.584;5.932;2023-08-07T03:11:05;10.57;;;2.40;;
74528;SDS011;63009;52.584;5.932;2023-08-07T03:13:30;12.80;;;2.37;;
74528;SDS011;63009;52.584;5.932;2023-08-07T03:15:59;10.70;;;2.20;;
74528;SDS011;63009;52.584;5.932;2023-08-07T03:18:26;13.02;;;2.60;;
74528;SDS011;63009;52.584;5.932;2023-08-07T03:20:51;14.55;;;3.28;;
74528;SDS011;63009;52.584;5.932;2023-08-07T03:23:16;13.80;;;2.60;;
74528;SDS011;63009;52.584;5.932;2023-08-07T03:25:42;9.10;;;2.07;;
74528;SDS011;63009;52.584;5.932;2023-08-07T03:28:07;13.40;;;3.00;;
74528;SDS011;63009;52.584;5.932;2023-08-07T03:30:32;11.90;;;2.20;;
74528;SDS011;63009;52.584;5.932;2023-08-07T03:32:58;10.73;;;2.13;;
74528;SDS011;63009;52.584;5.932;2023-08-07T03:35:23;11.50;;;2.20;;
74528;SDS011;63009;52.584;5.932;2023-08-07T03:37:48;10.87;;;2.70;;
74528;SDS011;63009;52.584;5.932;2023-08-07T03:40:13;12.18;;;2.75;;
74528;SDS011;63009;52.584;5.932;2023-08-07T03:42:39;9.40;;;1.80;;
74528;SDS011;63009;52.584;5.932;2023-08-07T03:45:04;9.03;;;1.70;;
74528;SDS011;63009;52.584;5.932;2023-08-07T03:47:30;5.53;;;1.60;;
74528;SDS011;63009;52.584;5.932;2023-08-07T03:49:55;5.67;;;1.27;;
74528;SDS011;63009;52.584;5.932;2023-08-07T03:52:20;6.77;;;1.50;;
74528;SDS011;63009;52.584;5.932;2023-08-07T03:54:46;8.13;;;1.63;;
74528;SDS011;63009;52.584;5.932;2023-08-07T03:57:11;6.53;;;1.60;;
74528;SDS011;63009;52.584;5.932;2023-08-07T03:59:36;8.37;;;1.67;;
74528;SDS011;63009;52.584;5.932;2023-08-07T04:02:02;8.32;;;1.80;;
74528;SDS011;63009;52.584;5.932;2023-08-07T04:04:27;9.38;;;1.77;;
74528;SDS011;63009;52.584;5.932;2023-08-07T04:06:52;6.00;;;1.70;;
74528;SDS011;63009;52.584;5.932;2023-08-07T04:09:18;7.53;;;2.30;;
74528;SDS011;63009;52.584;5.932;2023-08-07T04:11:43;7.53;;;1.87;;
74528;SDS011;63009;52.584;5.932;2023-08-07T04:14:08;9.15;;;2.50;;
74528;SDS011;63009;52.584;5.932;2023-08-07T04:16:33;9.23;;;2.20;;
74528;SDS011;63009;52.584;5.932;2023-08-07T04:18:59;10.67;;;2.93;;
74528;SDS011;63009;52.584;5.932;2023-08-07T04:21:24;16.80;;;3.57;;
74528;SDS011;63009;52.584;5.932;2023-08-07T04:23:49;13.80;;;2.80;;
74528;SDS011;63009;52.584;5.932;2023-08-07T04:26:15;12.90;;;2.90;;
74528;SDS011;63009;52.584;5.932;2023-08-07T04:28:40;13.75;;;3.55;;
74528;SDS011;63009;52.584;5.932;2023-08-07T04:31:05;11.75;;;2.75;;
74528;SDS011;63009;52.584;5.932;2023-08-07T04:33:31;15.10;;;3.15;;
74528;SDS011;63009;52.584;5.932;2023-08-07T04:35:56;9.80;;;2.70;;
74528;SDS011;63009;52.584;5.932;2023-08-07T04:38:21;11.27;;;2.57;;
74528;SDS011;63009;52.584;5.932;2023-08-07T04:40:47;12.18;;;2.95;;
74528;SDS011;63009;52.584;5.932;2023-08-07T04:43:14;10.73;;;2.45;;
74528;SDS011;63009;52.584;5.932;2023-08-07T04:45:40;14.00;;;3.40;;
74528;SDS011;63009;52.584;5.932;2023-08-07T04:48:09;16.80;;;3.35;;
74528;SDS011;63009;52.584;5.932;2023-08-07T04:50:34;12.38;;;2.47;;
74528;SDS011;63009;52.584;5.932;2023-08-07T04:53:00;12.23;;;2.90;;
74528;SDS011;63009;52.584;5.932;2023-08-07T04:55:25;15.30;;;2.83;;
74528;SDS011;63009;52.584;5.932;2023-08-07T04:57:50;11.68;;;3.30;;
74528;SDS011;63009;52.584;5.932;2023-08-07T05:00:19;14.15;;;2.65;;
74528;SDS011;63009;52.584;5.932;2023-08-07T05:02:44;14.40;;;2.95;;
74528;SDS011;63009;52.584;5.932;2023-08-07T05:05:09;13.97;;;2.70;;
74528;SDS011;63009;52.584;5.932;2023-08-07T05:07:35;11.60;;;2.80;;
74528;SDS011;63009;52.584;5.932;2023-08-07T05:10:01;10.97;;;2.73;;
74528;SDS011;63009;52.584;5.932;2023-08-07T05:12:27;10.25;;;2.40;;
74528;SDS011;63009;52.584;5.932;2023-08-07T05:14:53;11.57;;;2.40;;
74528;SDS011;63009;52.584;5.932;2023-08-07T05:17:18;11.50;;;2.67;;
74528;SDS011;63009;52.584;5.932;2023-08-07T05:19:43;8.03;;;1.97;;
74528;SDS011;63009;52.584;5.932;2023-08-07T05:22:08;8.70;;;2.83;;
74528;SDS011;63009;52.584;5.932;2023-08-07T05:24:34;11.20;;;2.20;;
74528;SDS011;63009;52.584;5.932;2023-08-07T05:27:04;10.15;;;2.33;;
74528;SDS011;63009;52.584;5.932;2023-08-07T05:29:30;8.20;;;2.10;;
74528;SDS011;63009;52.584;5.932;2023-08-07T05:31:55;8.47;;;2.30;;
74528;SDS011;63009;52.584;5.932;2023-08-07T05:34:21;9.37;;;2.33;;
74528;SDS011;63009;52.584;5.932;2023-08-07T05:36:46;9.10;;;2.17;;
74528;SDS011;63009;52.584;5.932;2023-08-07T05:39:11;11.10;;;2.00;;
74528;SDS011;63009;52.584;5.932;2023-08-07T05:41:37;11.33;;;2.27;;
74528;SDS011;63009;52.584;5.932;2023-08-07T05:44:03;16.13;;;2.42;;
74528;SDS011;63009;52.584;5.932;2023-08-07T05:46:30;9.00;;;2.53;;
74528;SDS011;63009;52.584;5.932;2023-08-07T05:48:55;12.80;;;2.50;;
74528;SDS011;63009;52.584;5.932;2023-08-07T05:51:21;11.00;;;2.40;;
74528;SDS011;63009;52.584;5.932;2023-08-07T05:53:46;12.33;;;2.30;;
74528;SDS011;63009;52.584;5.932;2023-08-07T05:56:11;11.87;;;2.63;;
74528;SDS011;63009;52.584;5.932;2023-08-07T05:58:37;10.18;;;3.05;;
74528;SDS011;63009;52.584;5.932;2023-08-07T06:01:02;11.73;;;2.70;;
74528;SDS011;63009;52.584;5.932;2023-08-07T06:03:27;11.60;;;2.30;;
74528;SDS011;63009;52.584;5.932;2023-08-07T06:05:53;13.07;;;2.70;;
74528;SDS011;63009;52.584;5.932;2023-08-07T06:08:18;9.67;;;2.97;;
74528;SDS011;63009;52.584;5.932;2023-08-07T06:10:43;14.00;;;2.60;;
74528;SDS011;63009;52.584;5.932;2023-08-07T06:13:08;9.00;;;2.67;;
74528;SDS011;63009;52.584;5.932;2023-08-07T06:15:34;10.33;;;2.20;;
74528;SDS011;63009;52.584;5.932;2023-08-07T06:17:59;12.07;;;2.50;;
74528;SDS011;63009;52.584;5.932;2023-08-07T06:20:24;13.75;;;2.88;;
74528;SDS011;63009;52.584;5.932;2023-08-07T06:22:50;13.83;;;3.37;;
74528;SDS011;63009;52.584;5.932;2023-08-07T06:25:15;11.90;;;2.83;;
74528;SDS011;63009;52.584;5.932;2023-08-07T06:27:40;13.27;;;3.00;;
74528;SDS011;63009;52.584;5.932;2023-08-07T06:30:06;9.95;;;2.25;;
74528;SDS011;63009;52.584;5.932;2023-08-07T06:32:31;14.68;;;2.75;;
74528;SDS011;63009;52.584;5.932;2023-08-07T06:34:57;10.03;;;2.53;;
74528;SDS011;63009;52.584;5.932;2023-08-07T06:37:23;11.15;;;2.55;;
74528;SDS011;63009;52.584;5.932;2023-08-07T06:39:48;15.00;;;2.60;;
74528;SDS011;63009;52.584;5.932;2023-08-07T06:42:13;11.80;;;2.97;;
74528;SDS011;63009;52.584;5.932;2023-08-07T06:44:38;8.80;;;2.70;;
74528;SDS011;63009;52.584;5.932;2023-08-07T06:47:04;12.77;;;2.23;;
74528;SDS011;63009;52.584;5.932;2023-08-07T06:49:29;10.00;;;2.30;;
74528;SDS011;63009;52.584;5.932;2023-08-07T06:51:56;10.00;;;1.92;;
74528;SDS011;63009;52.584;5.932;2023-08-07T06:54:22;8.63;;;2.25;;
74528;SDS011;63009;52.584;5.932;2023-08-07T06:56:47;8.27;;;2.20;;
74528;SDS011;63009;52.584;5.932;2023-08-07T06:59:13;8.27;;;2.03;;
74528;SDS011;63009;52.584;5.932;2023-08-07T07:01:38;13.45;;;2.47;;
74528;SDS011;63009;52.584;5.932;2023-08-07T07:04:03;10.52;;;2.33;;
74528;SDS011;63009;52.584;5.932;2023-08-07T07:06:29;12.98;;;2.50;;
74528;SDS011;63009;52.584;5.932;2023-08-07T07:08:54;8.83;;;2.37;;
74528;SDS011;63009;52.584;5.932;2023-08-07T07:11:19;10.50;;;2.57;;
74528;SDS011;63009;52.584;5.932;2023-08-07T07:13:47;9.80;;;2.30;;
74528;SDS011;63009;52.584;5.932;2023-08-07T07:16:12;7.28;;;1.50;;
74528;SDS011;63009;52.584;5.932;2023-08-07T07:18:38;5.05;;;1.17;;
74528;SDS011;63009;52.584;5.932;2023-08-07T07:21:04;6.90;;;1.70;;
74528;SDS011;63009;52.584;5.932;2023-08-07T07:23:29;8.40;;;1.85;;
74528;SDS011;63009;52.584;5.932;2023-08-07T07:25:54;11.50;;;2.45;;
74528;SDS011;63009;52.584;5.932;2023-08-07T07:28:20;11.70;;;3.00;;
74528;SDS011;63009;52.584;5.932;2023-08-07T07:30:45;13.70;;;2.30;;
74528;SDS011;63009;52.584;5.932;2023-08-07T07:33:11;13.10;;;2.77;;
74528;SDS011;63009;52.584;5.932;2023-08-07T07:35:38;10.70;;;1.95;;
74528;SDS011;63009;52.584;5.932;2023-08-07T07:38:04;10.40;;;2.67;;
74528;SDS011;63009;52.584;5.932;2023-08-07T07:40:29;14.75;;;2.60;;
74528;SDS011;63009;52.584;5.932;2023-08-07T07:42:55;9.40;;;2.40;;
74528;SDS011;63009;52.584;5.932;2023-08-07T07:45:20;11.13;;;2.43;;
74528;SDS011;63009;52.584;5.932;2023-08-07T07:47:45;10.13;;;2.33;;
74528;SDS011;63009;52.584;5.932;2023-08-07T07:50:10;8.10;;;2.00;;
74528;SDS011;63009;52.584;5.932;2023-08-07T07:52:37;10.18;;;2.40;;
74528;SDS011;63009;52.584;5.932;2023-08-07T07:55:03;10.60;;;2.28;;
74528;SDS011;63009;52.584;5.932;2023-08-07T07:57:28;7.57;;;2.10;;
74528;SDS011;63009;52.584;5.932;2023-08-07T07:59:53;9.43;;;1.97;;
74528;SDS011;63009;52.584;5.932;2023-08-07T08:02:19;6.93;;;1.83;;
74528;SDS011;63009;52.584;5.932;2023-08-07T08:04:44;7.78;;;1.80;;
74528;SDS011;63009;52.584;5.932;2023-08-07T08:07:09;13.37;;;2.10;;
74528;SDS011;63009;52.584;5.932;2023-08-07T08:09:35;10.27;;;1.83;;
74528;SDS011;63009;52.584;5.932;2023-08-07T08:12:00;9.50;;;1.90;;
74528;SDS011;63009;52.584;5.932;2023-08-07T08:14:25;9.23;;;1.97;;
74528;SDS011;63009;52.584;5.932;2023-08-07T08:16:50;8.17;;;2.63;;
74528;SDS011;63009;52.584;5.932;2023-08-07T08:19:16;10.20;;;2.03;;
74528;SDS011;63009;52.584;5.932;2023-08-07T08:21:41;6.50;;;1.70;;
74528;SDS011;63009;52.584;5.932;2023-08-07T08:24:07;8.90;;;1.77;;
74528;SDS011;63009;52.584;5.932;2023-08-07T08:26:32;7.25;;;1.77;;
74528;SDS011;63009;52.584;5.932;2023-08-07T08:28:58;9.47;;;2.23;;
74528;SDS011;63009;52.584;5.932;2023-08-07T08:31:23;10.87;;;2.00;;
74528;SDS011;63009;52.584;5.932;2023-08-07T08:33:49;9.45;;;2.00;;
74528;SDS011;63009;52.584;5.932;2023-08-07T08:36:14;9.02;;;2.72;;
74528;SDS011;63009;52.584;5.932;2023-08-07T08:38:40;9.77;;;2.10;;
74528;SDS011;63009;52.584;5.932;2023-08-07T08:41:05;7.85;;;2.00;;
74528;SDS011;63009;52.584;5.932;2023-08-07T08:43:34;12.80;;;2.25;;
74528;SDS011;63009;52.584;5.932;2023-08-07T08:46:01;9.07;;;1.60;;
74528;SDS011;63009;52.584;5.932;2023-08-07T08:48:28;8.38;;;1.90;;
74528;SDS011;63009;52.584;5.932;2023-08-07T08:50:56;7.30;;;1.30;;
74528;SDS011;63009;52.584;5.932;2023-08-07T08:53:22;8.73;;;2.10;;
74528;SDS011;63009;52.584;5.932;2023-08-07T08:55:49;6.82;;;1.63;;
74528;SDS011;63009;52.584;5.932;2023-08-07T08:58:16;5.72;;;1.40;;
74528;SDS011;63009;52.584;5.932;2023-08-07T09:00:42;7.70;;;1.80;;
74528;SDS011;63009;52.584;5.932;2023-08-07T09:03:08;9.30;;;1.80;;
74528;SDS011;63009;52.584;5.932;2023-08-07T09:05:33;5.50;;;1.52;;
74528;SDS011;63009;52.584;5.932;2023-08-07T09:08:00;6.88;;;1.55;;
74528;SDS011;63009;52.584;5.932;2023-08-07T09:10:26;5.93;;;1.65;;
74528;SDS011;63009;52.584;5.932;2023-08-07T09:13:02;6.68;;;1.58;;
74528;SDS011;63009;52.584;5.932;2023-08-07T09:15:30;8.90;;;1.70;;
74528;SDS011;63009;52.584;5.932;2023-08-07T09:17:56;7.45;;;1.58;;
74528;SDS011;63009;52.584;5.932;2023-08-07T09:20:23;7.40;;;1.65;;
74528;SDS011;63009;52.584;5.932;2023-08-07T09:22:49;10.93;;;1.85;;
74528;SDS011;63009;52.584;5.932;2023-08-07T09:25:15;6.82;;;1.73;;
74528;SDS011;63009;52.584;5.932;2023-08-07T09:27:52;7.10;;;1.70;;
74528;SDS011;63009;52.584;5.932;2023-08-07T09:30:17;8.83;;;1.63;;
74528;SDS011;63009;52.584;5.932;2023-08-07T09:32:42;6.57;;;1.90;;
74528;SDS011;63009;52.584;5.932;2023-08-07T09:35:08;6.30;;;1.58;;
74528;SDS011;63009;52.584;5.932;2023-08-07T09:37:36;10.60;;;2.50;;
74528;SDS011;63009;52.584;5.932;2023-08-07T09:40:02;9.60;;;1.70;;
74528;SDS011;63009;52.584;5.932;2023-08-07T09:42:28;6.93;;;2.30;;
74528;SDS011;63009;52.584;5.932;2023-08-07T09:44:56;5.72;;;1.60;;
74528;SDS011;63009;52.584;5.932;2023-08-07T09:47:21;6.97;;;1.55;;
74528;SDS011;63009;52.584;5.932;2023-08-07T09:49:47;5.97;;;1.40;;
74528;SDS011;63009;52.584;5.932;2023-08-07T09:52:13;8.93;;;1.70;;
74528;SDS011;63009;52.584;5.932;2023-08-07T09:54:40;9.00;;;2.80;;
74528;SDS011;63009;52.584;5.932;2023-08-07T09:57:06;9.23;;;2.13;;
74528;SDS011;63009;52.584;5.932;2023-08-07T09:59:32;6.53;;;1.48;;
74528;SDS011;63009;52.584;5.932;2023-08-07T10:01:58;7.18;;;1.83;;
74528;SDS011;63009;52.584;5.932;2023-08-07T10:04:24;10.13;;;2.10;;
74528;SDS011;63009;52.584;5.932;2023-08-07T10:06:51;7.55;;;1.90;;
74528;SDS011;63009;52.584;5.932;2023-08-07T10:09:16;8.85;;;1.40;;
74528;SDS011;63009;52.584;5.932;2023-08-07T10:11:41;7.78;;;1.63;;
74528;SDS011;63009;52.584;5.932;2023-08-07T10:14:10;6.53;;;1.65;;
74528;SDS011;63009;52.584;5.932;2023-08-07T10:16:37;7.78;;;2.58;;
74528;SDS011;63009;52.584;5.932;2023-08-07T10:19:06;8.98;;;1.70;;
74528;SDS011;63009;52.584;5.932;2023-08-07T10:21:32;10.20;;;2.33;;
74528;SDS011;63009;52.584;5.932;2023-08-07T10:24:05;5.38;;;1.48;;
74528;SDS011;63009;52.584;5.932;2023-08-07T10:26:33;7.75;;;1.70;;
74528;SDS011;63009;52.584;5.932;2023-08-07T10:29:00;8.00;;;1.90;;
74528;SDS011;63009;52.584;5.932;2023-08-07T10:31:29;7.22;;;1.70;;
74528;SDS011;63009;52.584;5.932;2023-08-07T10:33:59;10.25;;;2.08;;
74528;SDS011;63009;52.584;5.932;2023-08-07T10:36:31;5.93;;;1.92;;
74528;SDS011;63009;52.584;5.932;2023-08-07T10:39:09;6.75;;;1.70;;
74528;SDS011;63009;52.584;5.932;2023-08-07T10:41:38;9.68;;;1.88;;
74528;SDS011;63009;52.584;5.932;2023-08-07T10:44:20;7.13;;;1.55;;
74528;SDS011;63009;52.584;5.932;2023-08-07T10:46:49;6.30;;;1.75;;
74528;SDS011;63009;52.584;5.932;2023-08-07T10:49:35;7.40;;;1.52;;
74528;SDS011;63009;52.584;5.932;2023-08-07T10:52:03;4.57;;;1.20;;
74528;SDS011;63009;52.584;5.932;2023-08-07T10:54:36;6.72;;;1.60;;
74528;SDS011;63009;52.584;5.932;2023-08-07T10:57:09;5.75;;;1.98;;
74528;SDS011;63009;52.584;5.932;2023-08-07T10:59:44;5.13;;;1.42;;
74528;SDS011;63009;52.584;5.932;2023-08-07T11:02:29;7.07;;;1.75;;
74528;SDS011;63009;52.584;5.932;2023-08-07T11:04:55;9.93;;;2.28;;
74528;SDS011;63009;52.584;5.932;2023-08-07T11:07:24;4.82;;;1.50;;
74528;SDS011;63009;52.584;5.932;2023-08-07T11:09:51;5.28;;;1.40;;
74528;SDS011;63009;52.584;5.932;2023-08-07T11:12:17;6.35;;;1.30;;
74528;SDS011;63009;52.584;5.932;2023-08-07T11:14:42;8.38;;;1.92;;
74528;SDS011;63009;52.584;5.932;2023-08-07T11:17:07;9.93;;;1.83;;
74528;SDS011;63009;52.584;5.932;2023-08-07T11:19:33;8.05;;;1.75;;
74528;SDS011;63009;52.584;5.932;2023-08-07T11:21:58;8.55;;;2.50;;
74528;SDS011;63009;52.584;5.932;2023-08-07T11:24:24;6.28;;;2.05;;
74528;SDS011;63009;52.584;5.932;2023-08-07T11:26:52;6.07;;;1.20;;
74528;SDS011;63009;52.584;5.932;2023-08-07T11:29:20;7.25;;;1.60;;
74528;SDS011;63009;52.584;5.932;2023-08-07T11:31:47;5.13;;;1.50;;
74528;SDS011;63009;52.584;5.932;2023-08-07T11:34:18;6.32;;;1.67;;
74528;SDS011;63009;52.584;5.932;2023-08-07T11:36:44;3.55;;;1.20;;
74528;SDS011;63009;52.584;5.932;2023-08-07T11:39:13;4.35;;;1.23;;
74528;SDS011;63009;52.584;5.932;2023-08-07T11:41:41;4.97;;;1.40;;
74528;SDS011;63009;52.584;5.932;2023-08-07T11:44:07;5.13;;;1.27;;
74528;SDS011;63009;52.584;5.932;2023-08-07T11:46:36;6.18;;;1.40;;
74528;SDS011;63009;52.584;5.932;2023-08-07T11:49:01;6.70;;;1.58;;
74528;SDS011;63009;52.584;5.932;2023-08-07T11:51:29;6.90;;;1.55;;
74528;SDS011;63009;52.584;5.932;2023-08-07T11:54:03;7.43;;;1.50;;
74528;SDS011;63009;52.584;5.932;2023-08-07T11:56:29;5.88;;;1.60;;
74528;SDS011;63009;52.584;5.932;2023-08-07T11:58:54;4.97;;;1.38;;
74528;SDS011;63009;52.584;5.932;2023-08-07T12:01:25;5.53;;;1.50;;
74528;SDS011;63009;52.584;5.932;2023-08-07T12:03:52;7.63;;;1.55;;
74528;SDS011;63009;52.584;5.932;2023-08-07T12:06:30;5.10;;;1.50;;
74528;SDS011;63009;52.584;5.932;2023-08-07T12:08:55;8.32;;;1.45;;
74528;SDS011;63009;52.584;5.932;2023-08-07T12:11:21;5.65;;;1.73;;
74528;SDS011;63009;52.584;5.932;2023-08-07T12:13:47;5.40;;;1.60;;
74528;SDS011;63009;52.584;5.932;2023-08-07T12:16:14;5.93;;;1.15;;
74528;SDS011;63009;52.584;5.932;2023-08-07T12:18:47;6.18;;;1.25;;
74528;SDS011;63009;52.584;5.932;2023-08-07T12:21:15;5.85;;;1.30;;
74528;SDS011;63009;52.584;5.932;2023-08-07T12:23:44;7.18;;;1.92;;
74528;SDS011;63009;52.584;5.932;2023-08-07T12:26:09;5.93;;;1.20;;
74528;SDS011;63009;52.584;5.932;2023-08-07T12:28:35;7.43;;;1.45;;
74528;SDS011;63009;52.584;5.932;2023-08-07T12:31:01;5.18;;;1.30;;
74528;SDS011;63009;52.584;5.932;2023-08-07T12:33:28;10.38;;;2.50;;
74528;SDS011;63009;52.584;5.932;2023-08-07T12:35:54;7.68;;;1.30;;
74528;SDS011;63009;52.584;5.932;2023-08-07T12:38:22;5.32;;;1.30;;
74528;SDS011;63009;52.584;5.932;2023-08-07T12:40:47;9.52;;;1.55;;
74528;SDS011;63009;52.584;5.932;2023-08-07T12:43:12;6.28;;;1.40;;
74528;SDS011;63009;52.584;5.932;2023-08-07T12:45:38;7.72;;;1.70;;
74528;SDS011;63009;52.584;5.932;2023-08-07T12:48:03;7.00;;;1.92;;
74528;SDS011;63009;52.584;5.932;2023-08-07T12:50:29;7.38;;;2.25;;
74528;SDS011;63009;52.584;5.932;2023-08-07T12:52:57;8.63;;;1.58;;
74528;SDS011;63009;52.584;5.932;2023-08-07T12:55:25;6.07;;;1.52;;
74528;SDS011;63009;52.584;5.932;2023-08-07T12:57:52;6.68;;;2.00;;
74528;SDS011;63009;52.584;5.932;2023-08-07T13:00:17;11.20;;;2.08;;
74528;SDS011;63009;52.584;5.932;2023-08-07T13:02:44;4.95;;;1.35;;
74528;SDS011;63009;52.584;5.932;2023-08-07T13:05:11;7.68;;;1.65;;
74528;SDS011;63009;52.584;5.932;2023-08-07T13:07:37;4.28;;;1.65;;
74528;SDS011;63009;52.584;5.932;2023-08-07T13:10:06;6.97;;;1.98;;
74528;SDS011;63009;52.584;5.932;2023-08-07T13:12:37;7.85;;;1.73;;
74528;SDS011;63009;52.584;5.932;2023-08-07T13:15:06;5.68;;;1.60;;
74528;SDS011;63009;52.584;5.932;2023-08-07T13:17:35;6.68;;;1.38;;
74528;SDS011;63009;52.584;5.932;2023-08-07T13:20:01;6.70;;;1.50;;
74528;SDS011;63009;52.584;5.932;2023-08-07T13:22:32;10.07;;;1.65;;
74528;SDS011;63009;52.584;5.932;2023-08-07T13:24:58;6.97;;;1.63;;
74528;SDS011;63009;52.584;5.932;2023-08-07T13:27:23;10.17;;;1.90;;
74528;SDS011;63009;52.584;5.932;2023-08-07T13:29:49;6.60;;;1.40;;
74528;SDS011;63009;52.584;5.932;2023-08-07T13:32:14;8.27;;;1.47;;
74528;SDS011;63009;52.584;5.932;2023-08-07T13:34:39;8.57;;;1.90;;
74528;SDS011;63009;52.584;5.932;2023-08-07T13:37:05;7.43;;;1.83;;
74528;SDS011;63009;52.584;5.932;2023-08-07T13:39:31;7.32;;;1.73;;
74528;SDS011;63009;52.584;5.932;2023-08-07T13:41:57;4.67;;;1.20;;
74528;SDS011;63009;52.584;5.932;2023-08-07T13:44:22;5.30;;;1.33;;
74528;SDS011;63009;52.584;5.932;2023-08-07T13:46:48;5.47;;;1.13;;
74528;SDS011;63009;52.584;5.932;2023-08-07T13:49:14;8.18;;;1.52;;
74528;SDS011;63009;52.584;5.932;2023-08-07T13:51:40;5.93;;;1.30;;
74528;SDS011;63009;52.584;5.932;2023-08-07T13:54:05;4.60;;;1.20;;
74528;SDS011;63009;52.584;5.932;2023-08-07T13:56:31;5.97;;;1.30;;
74528;SDS011;63009;52.584;5.932;2023-08-07T13:58:56;8.17;;;1.50;;
74528;SDS011;63009;52.584;5.932;2023-08-07T14:01:21;10.98;;;1.88;;
74528;SDS011;63009;52.584;5.932;2023-08-07T14:03:47;9.20;;;1.57;;
74528;SDS011;63009;52.584;5.932;2023-08-07T14:06:12;8.63;;;1.73;;
74528;SDS011;63009;52.584;5.932;2023-08-07T14:08:37;8.30;;;1.50;;
74528;SDS011;63009;52.584;5.932;2023-08-07T14:11:02;3.77;;;1.27;;
74528;SDS011;63009;52.584;5.932;2023-08-07T14:13:29;5.40;;;1.33;;
74528;SDS011;63009;52.584;5.932;2023-08-07T14:15:54;4.20;;;1.10;;
74528;SDS011;63009;52.584;5.932;2023-08-07T14:18:20;3.97;;;1.13;;
74528;SDS011;63009;52.584;5.932;2023-08-07T14:20:45;4.45;;;1.05;;
74528;SDS011;63009;52.584;5.932;2023-08-07T14:23:10;5.70;;;1.80;;
74528;SDS011;63009;52.584;5.932;2023-08-07T14:25:36;4.23;;;1.20;;
74528;SDS011;63009;52.584;5.932;2023-08-07T14:28:01;5.17;;;1.40;;
74528;SDS011;63009;52.584;5.932;2023-08-07T14:30:26;3.10;;;1.00;;
74528;SDS011;63009;52.584;5.932;2023-08-07T14:32:51;4.10;;;1.00;;
74528;SDS011;63009;52.584;5.932;2023-08-07T14:35:17;6.57;;;1.67;;
74528;SDS011;63009;52.584;5.932;2023-08-07T14:37:42;4.15;;;1.13;;
74528;SDS011;63009;52.584;5.932;2023-08-07T14:40:08;4.90;;;1.20;;